Terminal Aerodrome Forecast
Issued by NWS

Home | Current Version | Previous Version | Text Only | Print | Product List | Glossary On
Versions: 1 2 3 4 5 6 7 8 9 10 11 12 13 14 15 16 17 18 19 20 21 22 23 24 25 26 27 28 29 30 31 32 33 34 35 36
000
FTUS44 KLIX 301335 AAA
TAFHDC
TAF AMD
KHDC 301335Z 3014/3112 19008KT P6SM VCTS BKN020CB OVC100
     FM301700 20009KT P6SM SHRA BKN040
     FM310000 22007KT P6SM SCT040
     FM310300 26007KT P6SM FEW120
     FM310800 30006KT P6SM SKC=

USA.gov is the U.S. government's official web portal to all federal, state and local government web resources and services.